• Join FlightAware (Why Join?)
  • Login
  • US Flag 
06:47PM EDT


 

Airport Tracker/Info


-or-


 

Live Flight TrackerFlight Track Log ✈ SWA624 ✈ 07-Jul-2013 ✈ KBWI - KMKE

Flight Track Log - Related Links

Times and Time Zones

All times are in EDT time to prevent confusion due to time zone crossing. See the SWA624 flight status page for this flight to view local times or setup timezone preferences in your user account.

Time Position Orientation Groundspeed Altitude Reporting Facility
EDT Latitude Longitude Course Direction KTS MPH feet Rate Location/Type
07:27PM 39.1833 -76.7333 288° West 183 211 2,300  Level Potomac TRACON
07:28PM 39.1833 -76.8167 270° West 237 273 5,100 3,240 Climbing Potomac TRACON
07:29PM 39.2000 -76.9000 284° West 261 300 8,800 3,240 Climbing Potomac TRACON
07:30PM 39.2167 -77.0000 282° West 283 326 11,600 3,000 Climbing Potomac TRACON
07:31PM 39.2167 -77.1000 270° West 292 336 14,800 2,100 Climbing Potomac TRACON
07:32PM 39.3927 -77.3873 288° West  Level FlightAware Approximate
07:33PM 39.3319 -77.3464 301° West 334 384 19,100  Level Washington Center
07:34PM 39.3844 -77.4578 301° West 355 409 21,100 1,740 Climbing Washington Center
07:35PM 39.4472 -77.5775 304° West 378 435 22,600 1,860 Climbing Washington Center
07:36PM 39.4931 -77.7053 295° West 392 451 24,900 1,800 Climbing Washington Center
07:37PM 39.5322 -77.8408 291° West 392 451 26,300 1,440 Climbing Washington Center
07:38PM 39.5792 -78.0014 291° West 413 475 27,800 1,380 Climbing Washington Center
07:40PM 39.6511 -78.2400 291° West 438 504 29,900 1,380 Climbing Cleveland Center
07:41PM 39.6958 -78.3922 291° West 448 516 31,400 1,620 Climbing Cleveland Center
07:42PM 39.7425 -78.5475 291° West 448 516 33,200 1,500 Climbing Cleveland Center
07:43PM 39.7822 -78.6786 292° West 448 516 34,400 1,380 Climbing Cleveland Center
07:44PM 39.8681 -78.8278 307° West 448 516 36,000 1,320 Climbing Cleveland Center
07:45PM 39.9472 -78.9583 308° West 454 522 37,100 900 Climbing Cleveland Center
07:46PM 40.0197 -79.0758 309° West 462 532 37,900 420 Climbing Cleveland Center
07:47PM 40.1028 -79.2286 305° West 467 537 38,000  Climbing Cleveland Center
07:48PM 40.1792 -79.3467 310° West 473 544 38,000  Level Cleveland Center
07:49PM 40.2578 -79.4814 307° West 478 550 38,000  Level Cleveland Center
07:50PM 40.3361 -79.6189 307° West 478 550 38,000  Level Cleveland Center
07:51PM 40.4144 -79.7542 307° West 473 544 38,000  Level Cleveland Center
07:52PM 40.4944 -79.8897 308° West 473 544 38,000  Level Cleveland Center
07:53PM 40.5808 -80.0500 305° West 478 550 38,000  Level Cleveland Center
07:54PM 40.6586 -80.1917 306° West 478 550 38,000  Level Cleveland Center
07:55PM 40.7361 -80.3256 307° West 478 550 38,000  Level Cleveland Center
07:56PM 40.8156 -80.4625 307° West 466 536 38,000  Level Cleveland Center
07:57PM 40.8947 -80.5969 308° West 466 536 38,000  Level Cleveland Center
07:58PM 40.9717 -80.7372 306° West 466 536 38,000  Level Cleveland Center
07:59PM 41.0486 -80.8750 307° West 466 536 38,000  Level Cleveland Center
08:00PM 41.1253 -81.0131 306° West 466 536 38,000  Level Cleveland Center
08:01PM 41.1914 -81.1406 305° West 472 543 38,000  Level Cleveland Center
08:02PM 41.2700 -81.2819 307° West 478 550 38,000  Level Cleveland Center
08:03PM 41.3564 -81.4378 306° West 478 550 38,000  Level Cleveland Center
08:04PM 41.4283 -81.5608 308° West 478 550 38,000  Level Cleveland Center
08:05PM 41.5042 -81.7089 304° West 488 562 38,000  Level Cleveland Center
08:06PM 41.5778 -81.8517 305° West 482 555 38,000  Level Cleveland Center
08:07PM 41.6531 -81.9922 306° West 469 540 38,000  Level Cleveland Center
08:08PM 41.7244 -82.1272 305° West 464 534 38,000  Level Cleveland Center
08:09PM 41.7994 -82.2711 305° West 464 534 38,000  Level Cleveland Center
08:10PM 41.8744 -82.4097 306° West 464 534 38,000  Level Cleveland Center
08:11PM 41.9492 -82.5514 305° West 464 534 38,000  Level Cleveland Center
08:12PM 42.0239 -82.6936 305° West 464 534 38,000  Level Cleveland Center
08:13PM 42.0964 -82.8358 305° West 470 541 38,000  Level Cleveland Center
08:14PM 42.1686 -82.9756 305° West 470 541 38,000  Level Cleveland Center
08:15PM 42.2428 -83.1131 306° West 465 535 38,000  Level Cleveland Center
08:16PM 42.3225 -83.2736 304° West 465 535 38,000  Level Cleveland Center
08:17PM 42.3919 -83.4117 304° West 460 529 38,000  Level Cleveland Center
08:18PM 42.4658 -83.5500 306° West 455 524 38,000  Level Cleveland Center
08:19PM 42.5331 -83.6856 304° West 455 524 38,000  Level Cleveland Center
08:20PM 42.6022 -83.8244 304° West 445 512 38,000  Level Cleveland Center
08:21PM 42.6731 -83.9636 305° West 445 512 38,000  Level Cleveland Center
08:22PM 42.7314 -84.1083 299° West 445 512 38,000  Level Cleveland Center
08:24PM 42.8233 -84.5025 288° West 446 513 38,000  Level Chicago Center
08:25PM 42.8608 -84.6617 288° West 444 511 38,000  Level Chicago Center
08:26PM 42.8969 -84.8203 287° West 441 507 38,000  Level Chicago Center
08:27PM 42.9331 -84.9792 287° West 440 506 38,000  Level Chicago Center
08:28PM 42.9692 -85.1358 288° West 437 503 38,000 -780 Level Chicago Center
08:29PM 43.0039 -85.2878 287° West 425 489 36,500 -1,500 Descending Chicago Center
08:30PM 43.0442 -85.4694 287° West 418 481 34,900 -1,500 Descending Chicago Center
08:31PM 43.0783 -85.6214 287° West 422 486 33,500 -1,260 Descending Chicago Center
08:32PM 43.1142 -85.7789 287° West 436 502 32,300 -1,800 Descending Chicago Center
08:34PM 43.1286 -85.9478 277° West 458 527 29,800 -3,480 Descending Chicago Center
08:35PM 43.1328 -86.1536 272° West 468 539 25,200 -3,540 Descending Chicago Center
08:36PM 43.1361 -86.3219 272° West 447 514 22,500 -2,400 Descending Chicago Center
08:37PM 43.1406 -86.4864 272° West 435 501 20,300 -2,040 Descending Chicago Center
08:38PM 43.1436 -86.6381 272° West 405 466 18,300 -1,920 Descending Chicago Center
08:39PM 43.1469 -86.7831 272° West 385 443 16,400 -2,100 Descending Chicago Center
08:40PM 43.1506 -86.9500 272° West 369 425 14,000 -2,040 Descending Chicago Center
08:41PM 43.1422 -87.0758 265° West 336 387 12,300 -1,980 Descending Chicago Center
08:42PM 43.1125 -87.2028 252° West 352 405 10,000 -1,440 Descending Chicago Center
08:43PM 43.0856 -87.3142 252° West 314 361 9,400 -1,140 Descending Chicago Center
08:44PM 43.0564 -87.4292 251° West 283 326 7,700 -1,680 Descending Chicago Center
08:45PM 43.0328 -87.5275 252° West 274 315 6,000 -1,620 Descending Chicago Center
08:46PM 43.0092 -87.6242 252° West 269 310 4,400 -1,260 Descending Chicago Center
08:47PM 42.9875 -87.7122 251° West 252 290 3,500 -1,020 Descending Chicago Center
08:48PM 42.9722 -87.7806 253° West 204 235 2,300 -1,020 Descending Chicago Center
08:49PM 42.9558 -87.8433 250° West 170 196 1,400 -600 Descending Chicago Center
08:50PM 42.9444 -87.8908 252° West 154 177 1,100 -300 Descending Chicago Center
08:52PM 42.9333 -87.8833 236° Southwest  Level FlightAware Approximate